Time;durP1;ratioP1;P1;durP2;ratioP2;P2;SDS_P1;SDS_P2;PMS_P1;PMS_P2;Temp;Humidity;BMP_temperature;BMP_pressure;BME280_temperature;BME280_humidity;BME280_pressure;Samples;Min_cycle;Max_cycle;Signal;HPM_P1;HPM_P2
2022/12/20 00:01:51;;;;;;;16.77;10.77;;;-0.50;99.90;;;;;;4989562;28;20050;-78
2022/12/20 00:04:19;;;;;;;10.85;9.85;;;-0.60;99.90;;;;;;4990020;28;20049;-78
2022/12/20 00:06:46;;;;;;;11.65;9.55;;;-0.70;99.90;;;;;;4973149;28;20438;-79
2022/12/20 00:09:14;;;;;;;13.77;7.57;;;-0.70;99.90;;;;;;4971808;28;20043;-78
2022/12/20 00:11:42;;;;;;;11.23;9.10;;;-0.50;99.90;;;;;;4972378;28;20042;-80
2022/12/20 00:14:09;;;;;;;12.23;9.52;;;-0.50;99.90;;;;;;4957004;28;20050;-79
2022/12/20 00:16:37;;;;;;;14.18;7.97;;;-0.70;99.90;;;;;;4989964;28;20053;-78
2022/12/20 00:19:06;;;;;;;18.25;9.15;;;-0.70;99.90;;;;;;4989833;28;20649;-78
2022/12/20 00:21:35;;;;;;;13.98;8.73;;;-0.50;99.90;;;;;;4992024;28;20053;-78
2022/12/20 00:24:04;;;;;;;11.02;8.20;;;-0.50;99.90;;;;;;5006965;28;20667;-78
2022/12/20 00:26:34;;;;;;;11.77;8.43;;;-0.60;99.90;;;;;;5009308;28;20058;-78
2022/12/20 00:29:02;;;;;;;20.02;9.10;;;-0.60;99.90;;;;;;5008586;28;20465;-79
2022/12/20 00:31:31;;;;;;;13.10;8.77;;;-0.60;99.90;;;;;;5009575;28;20193;-79
2022/12/20 00:34:00;;;;;;;17.70;10.65;;;-0.60;99.90;;;;;;4991893;28;20465;-79
2022/12/20 00:36:30;;;;;;;14.27;11.35;;;-0.50;99.90;;;;;;4991543;28;20038;-78
2022/12/20 00:38:59;;;;;;;8.98;7.60;;;-0.60;99.90;;;;;;4990304;28;20060;-78
2022/12/20 00:41:30;;;;;;;12.25;8.25;;;-0.60;99.90;;;;;;4990960;28;20057;-78
2022/12/20 00:43:59;;;;;;;13.98;9.32;;;-0.70;99.90;;;;;;5007963;28;20417;-78
2022/12/20 00:46:30;;;;;;;11.20;7.10;;;-0.80;99.90;;;;;;4992130;28;20045;-78
2022/12/20 00:49:01;;;;;;;10.75;8.65;;;-0.90;99.90;;;;;;4975672;28;20049;-78
2022/12/20 00:51:31;;;;;;;11.20;8.45;;;-1.00;99.90;;;;;;4992252;28;20781;-78
2022/12/20 00:53:59;;;;;;;12.95;8.02;;;-1.20;99.90;;;;;;4989955;28;20060;-78
2022/12/20 00:56:26;;;;;;;11.55;7.95;;;-1.30;99.90;;;;;;5007907;28;20270;-78
2022/12/20 00:58:57;;;;;;;13.30;10.05;;;-1.20;99.90;;;;;;4975919;28;20069;-78
2022/12/20 01:01:29;;;;;;;14.13;8.48;;;-1.20;99.90;;;;;;4991184;28;20053;-78
2022/12/20 01:03:57;;;;;;;12.38;10.00;;;-1.20;99.90;;;;;;4991047;28;20042;-78
2022/12/20 01:06:24;;;;;;;10.30;9.30;;;-1.20;99.90;;;;;;4991463;28;20053;-78
2022/12/20 01:08:53;;;;;;;14.23;8.68;;;-1.10;99.90;;;;;;5006993;28;20049;-78
2022/12/20 01:11:29;;;;;;;13.10;9.95;;;-1.20;99.90;;;;;;5009045;28;20046;-78
2022/12/20 01:14:01;;;;;;;11.25;7.97;;;-1.20;99.90;;;;;;4991071;28;20045;-78
2022/12/20 01:16:33;;;;;;;16.67;10.88;;;-1.10;99.90;;;;;;4991145;28;20048;-78
2022/12/20 01:19:03;;;;;;;12.70;9.02;;;-1.00;99.90;;;;;;5008909;28;20060;-79
2022/12/20 01:21:33;;;;;;;14.15;9.98;;;-0.80;99.90;;;;;;4990435;28;20429;-78
2022/12/20 01:24:01;;;;;;;11.35;8.02;;;-0.80;99.90;;;;;;5007080;28;20048;-78
2022/12/20 01:26:30;;;;;;;10.80;8.93;;;-0.90;99.90;;;;;;4991479;28;20058;-78
2022/12/20 01:28:59;;;;;;;14.27;8.68;;;-1.00;99.90;;;;;;4990720;28;20244;-78
2022/12/20 01:31:28;;;;;;;13.20;8.90;;;-1.30;99.90;;;;;;5008720;28;20718;-78
2022/12/20 01:33:57;;;;;;;15.63;9.45;;;-1.40;99.90;;;;;;4990356;28;20049;-78
2022/12/20 01:36:30;;;;;;;11.80;8.23;;;-1.40;99.90;;;;;;4990795;28;20480;-78
2022/12/20 01:39:05;;;;;;;11.27;8.30;;;-1.40;99.90;;;;;;4989183;28;20065;-78
2022/12/20 01:41:34;;;;;;;10.40;8.95;;;-1.20;99.90;;;;;;4974642;28;20057;-78
2022/12/20 01:44:26;;;;;;;10.82;8.60;;;-0.90;99.90;;;;;;4973835;28;20481;-78
2022/12/20 01:46:54;;;;;;;12.85;8.70;;;-0.70;99.90;;;;;;4978524;28;20425;-78
2022/12/20 01:49:53;;;;;;;13.52;8.93;;;-0.80;99.90;;;;;;5007386;28;20077;-78
2022/12/20 01:52:42;;;;;;;15.70;10.30;;;-0.80;99.90;;;;;;5000138;28;20226;-78
2022/12/20 01:55:15;;;;;;;13.45;8.48;;;-0.80;99.90;;;;;;4980430;28;20046;-78
2022/12/20 01:58:02;;;;;;;10.20;7.28;;;-1.00;99.90;;;;;;4990730;28;20046;-78
2022/12/20 02:00:29;;;;;;;14.88;9.82;;;-1.20;99.90;;;;;;4990512;28;20041;-78
2022/12/20 02:03:05;;;;;;;12.85;9.45;;;-1.20;99.90;;;;;;4990761;28;20054;-78
2022/12/20 02:05:35;;;;;;;13.23;8.35;;;-1.10;99.90;;;;;;4990470;28;20125;-78
2022/12/20 02:08:05;;;;;;;12.43;8.47;;;-1.30;99.90;;;;;;5006388;28;20042;-78
2022/12/20 02:10:53;;;;;;;14.57;11.10;;;-1.30;99.90;;;;;;5007961;28;20056;-78
2022/12/20 02:13:49;;;;;;;11.88;8.00;;;-1.30;99.90;;;;;;4990561;28;20089;-78
2022/12/20 02:16:24;;;;;;;14.73;9.48;;;-1.30;99.90;;;;;;4990333;28;20409;-78
2022/12/20 02:19:13;;;;;;;15.35;9.45;;;-1.10;99.90;;;;;;4990530;28;20134;-78
2022/12/20 02:22:00;;;;;;;12.65;7.65;;;-1.00;99.90;;;;;;4987719;28;20062;-78
2022/12/20 02:24:53;;;;;;;13.85;8.02;;;-0.90;99.90;;;;;;4955110;28;20045;-78
2022/12/20 02:27:37;;;;;;;14.45;9.88;;;-0.70;99.90;;;;;;4970896;28;20414;-78
2022/12/20 02:30:22;;;;;;;9.00;7.78;;;-0.70;99.90;;;;;;4954620;28;20414;-78
2022/12/20 02:33:01;;;;;;;14.32;8.57;;;-0.70;99.90;;;;;;4974406;28;20057;-78
2022/12/20 02:35:33;;;;;;;11.82;7.32;;;-0.60;99.90;;;;;;4974079;28;20042;-79
2022/12/20 02:38:23;;;;;;;15.13;9.25;;;-0.60;99.90;;;;;;4972140;28;20048;-78
2022/12/20 02:40:56;;;;;;;12.23;8.65;;;-0.50;99.90;;;;;;5007206;28;20050;-78
2022/12/20 02:46:17;;;;;;;17.42;12.18;;;-0.40;99.90;;;;;;4973876;28;20048;-78
2022/12/20 02:48:47;;;;;;;17.20;10.88;;;-0.50;99.90;;;;;;4995407;28;20049;-78
2022/12/20 02:51:19;;;;;;;16.52;8.40;;;-0.50;99.90;;;;;;5011174;28;20042;-79
2022/12/20 02:53:49;;;;;;;10.30;8.63;;;-0.50;99.90;;;;;;4960023;28;20049;-78
2022/12/20 02:56:33;;;;;;;14.23;7.28;;;-0.40;99.90;;;;;;4993327;28;20409;-78
2022/12/20 02:59:12;;;;;;;9.55;7.40;;;-0.50;99.90;;;;;;4994266;28;20057;-78
2022/12/20 03:01:46;;;;;;;14.65;10.48;;;-0.60;99.90;;;;;;4983606;28;20059;-78
2022/12/20 03:04:21;;;;;;;17.38;10.90;;;-0.70;99.90;;;;;;5010438;28;20045;-78
2022/12/20 03:07:08;;;;;;;13.68;9.52;;;-0.70;99.90;;;;;;5011417;28;20053;-78
2022/12/20 03:09:38;;;;;;;12.95;7.90;;;-0.80;99.90;;;;;;4993380;28;20469;-78
2022/12/20 03:12:07;;;;;;;13.57;9.15;;;-0.80;99.90;;;;;;4976582;28;20054;-78
2022/12/20 03:14:38;;;;;;;17.95;10.65;;;-1.00;99.90;;;;;;5011540;28;20400;-78
2022/12/20 03:17:08;;;;;;;16.17;7.07;;;-1.10;99.90;;;;;;4976869;28;20054;-78
2022/12/20 03:19:38;;;;;;;15.75;10.18;;;-1.10;99.90;;;;;;5010277;28;20061;-79
2022/12/20 03:22:06;;;;;;;10.70;7.35;;;-0.80;99.90;;;;;;5009459;28;20042;-78
2022/12/20 03:24:33;;;;;;;14.10;9.23;;;-0.70;99.90;;;;;;4992857;28;20417;-78
2022/12/20 03:27:06;;;;;;;19.63;9.15;;;-0.60;99.90;;;;;;4992932;28;20049;-78
2022/12/20 03:29:33;;;;;;;13.30;10.63;;;-0.60;99.90;;;;;;5010800;28;20057;-78
2022/12/20 03:32:02;;;;;;;11.85;8.40;;;-0.50;99.90;;;;;;4992658;28;20053;-79
2022/12/20 03:34:30;;;;;;;17.10;8.77;;;-0.50;99.90;;;;;;5011404;28;20053;-78
2022/12/20 03:36:57;;;;;;;11.15;8.63;;;-0.50;99.90;;;;;;4991822;28;20255;-78
2022/12/20 03:39:25;;;;;;;11.60;8.10;;;-0.50;99.90;;;;;;4973428;28;20055;-78
2022/12/20 03:41:55;;;;;;;17.40;11.80;;;-0.60;99.90;;;;;;4989396;28;20561;-79
2022/12/20 03:44:23;;;;;;;12.63;9.13;;;-0.70;99.90;;;;;;4990524;28;20039;-79
2022/12/20 03:46:51;;;;;;;11.63;7.35;;;-0.80;99.90;;;;;;4990823;28;20058;-78
2022/12/20 03:49:20;;;;;;;12.27;9.88;;;-0.90;99.90;;;;;;4973356;28;20425;-79
2022/12/20 03:51:51;;;;;;;14.48;10.27;;;-0.70;99.90;;;;;;4989617;28;20050;-79
2022/12/20 03:54:19;;;;;;;11.05;9.23;;;-0.60;99.90;;;;;;4971213;28;20047;-79
2022/12/20 03:57:08;;;;;;;11.18;8.02;;;-0.40;99.90;;;;;;4970329;28;20047;-79
2022/12/20 03:59:36;;;;;;;13.32;8.43;;;-0.30;99.90;;;;;;4971422;28;20051;-78
2022/12/20 04:02:06;;;;;;;22.58;12.68;;;-0.20;99.90;;;;;;4969179;28;20246;-78
2022/12/20 04:04:35;;;;;;;16.10;9.80;;;-0.30;99.90;;;;;;4970899;28;20410;-79
2022/12/20 04:07:02;;;;;;;10.77;9.18;;;-0.60;99.90;;;;;;4953156;28;20778;-79
2022/12/20 04:09:31;;;;;;;11.10;8.00;;;-0.70;99.90;;;;;;4968818;28;20043;-79
2022/12/20 04:12:05;;;;;;;11.00;8.35;;;-0.70;99.90;;;;;;4953882;28;20050;-78
2022/12/20 04:14:35;;;;;;;12.98;8.00;;;-0.80;99.90;;;;;;4937890;28;20055;-78
2022/12/20 04:17:03;;;;;;;10.85;8.65;;;-0.90;99.90;;;;;;4968936;28;20057;-79
2022/12/20 04:19:31;;;;;;;11.13;9.15;;;-0.90;99.90;;;;;;4971585;28;20062;-78
2022/12/20 04:21:59;;;;;;;12.73;7.95;;;-0.90;99.90;;;;;;4987834;28;20049;-78
2022/12/20 04:24:44;;;;;;;14.00;8.35;;;-0.90;99.90;;;;;;4958821;28;20395;-78
2022/12/20 04:27:19;;;;;;;10.50;7.38;;;-0.90;99.90;;;;;;4989457;28;20069;-78
2022/12/20 04:29:50;;;;;;;15.87;9.07;;;-0.90;99.90;;;;;;4972061;28;20050;-78
2022/12/20 04:32:19;;;;;;;11.52;8.93;;;-1.00;99.90;;;;;;4988376;28;20301;-78
2022/12/20 04:34:48;;;;;;;11.80;8.18;;;-1.00;99.90;;;;;;4989108;28;20421;-78
2022/12/20 04:37:17;;;;;;;11.25;7.20;;;-1.00;99.90;;;;;;4987999;28;20399;-78
2022/12/20 04:39:49;;;;;;;20.20;9.55;;;-0.90;99.90;;;;;;4987338;28;20058;-79
2022/12/20 04:42:20;;;;;;;8.87;7.90;;;-0.90;99.90;;;;;;4973149;28;20050;-79
2022/12/20 04:44:49;;;;;;;10.23;7.72;;;-0.80;99.90;;;;;;4987977;28;20043;-79
2022/12/20 04:47:22;;;;;;;15.77;10.02;;;-0.70;99.90;;;;;;4972736;28;20050;-79
2022/12/20 04:49:53;;;;;;;10.85;7.70;;;-0.60;99.90;;;;;;4987281;28;20069;-79
2022/12/20 04:55:14;;;;;;;9.35;6.85;;;-0.40;99.90;;;;;;4988049;28;20069;-79
2022/12/20 04:57:42;;;;;;;9.93;7.68;;;-0.30;99.90;;;;;;4988399;28;20049;-79
2022/12/20 05:00:10;;;;;;;12.05;7.70;;;-0.20;99.90;;;;;;4971914;28;20450;-79
2022/12/20 05:02:42;;;;;;;12.32;7.55;;;-0.20;99.90;;;;;;4989943;28;20050;-79
2022/12/20 05:05:13;;;;;;;8.68;7.78;;;-0.20;99.90;;;;;;5004414;28;20042;-79
2022/12/20 05:07:47;;;;;;;9.50;8.00;;;-0.10;99.90;;;;;;4986767;28;20057;-79
2022/12/20 05:10:14;;;;;;;12.00;8.30;;;-0.10;99.90;;;;;;4987696;28;20403;-79
2022/12/20 05:12:43;;;;;;;8.10;6.55;;;-0.10;99.90;;;;;;5004172;28;20373;-79
2022/12/20 05:15:18;;;;;;;9.93;8.00;;;-0.10;99.90;;;;;;4988228;28;20050;-79
2022/12/20 05:17:45;;;;;;;13.48;8.25;;;-0.10;99.90;;;;;;4987359;28;20054;-79
2022/12/20 05:20:13;;;;;;;8.52;6.45;;;-0.10;99.90;;;;;;4987092;28;20054;-79
2022/12/20 05:28:32;;;;;;;10.93;6.72;;;-0.10;99.90;;;;;;4964341;28;20061;-79
2022/12/20 05:31:01;;;;;;;6.70;5.95;;;0.00;99.90;;;;;;5008701;28;20085;-79
2022/12/20 05:33:31;;;;;;;11.48;8.43;;;0.00;99.90;;;;;;5006417;28;20112;-79
2022/12/20 05:36:03;;;;;;;13.20;7.38;;;-0.10;99.90;;;;;;5006876;28;20048;-79
2022/12/20 05:38:30;;;;;;;7.70;6.90;;;-0.10;99.90;;;;;;5006051;28;20057;-79
2022/12/20 05:40:59;;;;;;;8.10;6.07;;;-0.10;99.90;;;;;;4990664;28;20046;-79
2022/12/20 05:43:27;;;;;;;12.40;8.57;;;-0.10;99.90;;;;;;5007663;28;20041;-79
2022/12/20 05:45:56;;;;;;;7.57;5.07;;;0.00;99.90;;;;;;5006142;28;20046;-79
2022/12/20 05:48:32;;;;;;;9.77;8.77;;;0.00;99.90;;;;;;5007063;28;20041;-78
2022/12/20 05:51:00;;;;;;;9.88;8.13;;;0.10;99.90;;;;;;4991281;28;20057;-79
2022/12/20 05:53:30;;;;;;;10.23;5.93;;;0.00;99.90;;;;;;4986114;28;20421;-79
2022/12/20 05:56:01;;;;;;;7.20;6.40;;;-0.10;99.90;;;;;;5000718;28;20045;-79
2022/12/20 05:58:32;;;;;;;10.27;7.53;;;-0.20;99.90;;;;;;5007035;28;20045;-79
2022/12/20 06:01:03;;;;;;;13.98;7.55;;;-0.20;99.90;;;;;;4995276;28;20050;-79
2022/12/20 06:03:35;;;;;;;7.55;6.78;;;-0.20;99.90;;;;;;4972421;28;20054;-78
2022/12/20 06:06:07;;;;;;;11.57;8.50;;;-0.10;99.90;;;;;;4990970;28;20064;-79
2022/12/20 06:08:41;;;;;;;11.00;8.60;;;-0.20;99.90;;;;;;5004009;28;20405;-79
2022/12/20 06:11:15;;;;;;;11.23;7.40;;;-0.30;99.90;;;;;;4990780;28;20425;-79
2022/12/20 06:13:50;;;;;;;10.93;7.32;;;-0.40;99.90;;;;;;4991731;28;20046;-79
2022/12/20 06:16:22;;;;;;;8.65;7.72;;;-0.40;99.90;;;;;;5005659;28;20045;-79
2022/12/20 06:18:52;;;;;;;8.38;6.95;;;-0.40;99.90;;;;;;5007362;28;20050;-79
2022/12/20 06:21:20;;;;;;;8.65;7.35;;;-0.40;99.90;;;;;;4988082;28;20043;-79
2022/12/20 06:23:49;;;;;;;10.48;9.20;;;-0.30;99.90;;;;;;5007618;28;20046;-78
2022/12/20 06:26:17;;;;;;;14.57;9.57;;;-0.30;99.90;;;;;;5011335;28;20485;-78
2022/12/20 06:28:51;;;;;;;10.32;9.15;;;-0.20;99.90;;;;;;5010632;28;20049;-79
2022/12/20 06:31:27;;;;;;;6.05;5.47;;;-0.20;99.90;;;;;;5026120;28;20053;-79
2022/12/20 06:33:55;;;;;;;9.35;6.95;;;-0.20;99.90;;;;;;4993721;28;20301;-79
2022/12/20 06:36:30;;;;;;;10.35;8.80;;;-0.10;99.90;;;;;;5001294;28;20033;-79
2022/12/20 06:39:01;;;;;;;13.05;8.65;;;-0.30;99.90;;;;;;5002387;28;20059;-78
2022/12/20 06:41:41;;;;;;;12.18;8.82;;;-0.50;99.90;;;;;;4956737;28;20051;-79
2022/12/20 06:44:09;;;;;;;9.05;7.20;;;-0.50;99.90;;;;;;4970852;28;20043;-78
2022/12/20 06:46:36;;;;;;;12.25;8.57;;;-0.50;99.90;;;;;;4971126;28;20051;-79
2022/12/20 06:49:04;;;;;;;8.63;7.63;;;-0.40;99.90;;;;;;4970763;28;20498;-79
2022/12/20 06:51:32;;;;;;;11.60;9.80;;;-0.40;99.90;;;;;;4977438;28;20051;-79
2022/12/20 06:54:00;;;;;;;9.30;7.85;;;-0.30;99.90;;;;;;4985585;28;20049;-79
2022/12/20 06:56:33;;;;;;;12.60;8.00;;;-0.30;99.90;;;;;;4989796;28;20034;-79
2022/12/20 06:59:09;;;;;;;8.15;7.13;;;-0.50;99.90;;;;;;4979250;28;20050;-78
2022/12/20 07:01:37;;;;;;;10.93;8.23;;;-0.50;99.90;;;;;;4974297;28;20523;-78
2022/12/20 07:04:06;;;;;;;14.65;9.15;;;-0.60;99.90;;;;;;4971780;28;20038;-78
2022/12/20 07:06:33;;;;;;;10.05;7.78;;;-0.40;99.90;;;;;;4973881;28;20287;-78
2022/12/20 07:09:01;;;;;;;11.48;8.40;;;-0.60;99.90;;;;;;4970911;28;20066;-79
2022/12/20 07:11:29;;;;;;;11.82;8.43;;;-0.60;99.90;;;;;;4972033;28;20046;-79
2022/12/20 07:13:57;;;;;;;11.63;7.32;;;-0.60;99.90;;;;;;4971387;28;20051;-79
2022/12/20 07:16:25;;;;;;;10.35;7.00;;;-0.60;99.90;;;;;;4970672;28;20051;-79
2022/12/20 07:18:54;;;;;;;12.00;9.02;;;-0.50;99.90;;;;;;4970806;28;20059;-78
2022/12/20 07:21:21;;;;;;;10.73;6.28;;;-0.40;99.90;;;;;;4972715;28;20042;-78
2022/12/20 07:23:49;;;;;;;10.35;8.88;;;-0.30;99.90;;;;;;4989789;28;20054;-79
2022/12/20 07:26:16;;;;;;;17.50;9.00;;;-0.20;99.90;;;;;;4989937;28;20433;-78
2022/12/20 07:28:44;;;;;;;12.10;8.27;;;0.00;99.90;;;;;;4989318;28;20038;-79
2022/12/20 07:31:12;;;;;;;16.10;8.70;;;0.00;99.90;;;;;;4973984;28;20051;-78
2022/12/20 07:33:40;;;;;;;7.88;6.75;;;0.00;99.90;;;;;;4983894;28;20046;-79
2022/12/20 07:36:11;;;;;;;11.25;9.13;;;0.10;99.90;;;;;;4986404;28;20070;-79
2022/12/20 07:38:40;;;;;;;14.68;8.73;;;0.20;99.90;;;;;;5000247;28;20046;-79
2022/12/20 07:41:12;;;;;;;10.35;7.45;;;0.20;99.90;;;;;;4990729;28;20481;-79
2022/12/20 07:43:40;;;;;;;11.43;8.45;;;0.20;99.90;;;;;;5014159;28;20500;-79
2022/12/20 07:46:10;;;;;;;14.18;10.82;;;0.10;99.90;;;;;;5008509;28;20038;-78
2022/12/20 07:48:38;;;;;;;9.60;8.27;;;-0.10;99.90;;;;;;5008195;28;20069;-78
2022/12/20 07:51:13;;;;;;;12.45;9.82;;;-0.20;99.90;;;;;;5025366;28;20072;-78
2022/12/20 07:53:47;;;;;;;15.80;8.52;;;-0.20;99.90;;;;;;5011388;28;20433;-79
2022/12/20 07:56:18;;;;;;;10.98;8.05;;;-0.10;99.90;;;;;;5006438;28;20049;-78
2022/12/20 07:58:47;;;;;;;13.57;8.27;;;-0.10;99.90;;;;;;5025616;28;20045;-79
2022/12/20 08:01:14;;;;;;;10.68;7.50;;;0.00;99.90;;;;;;5025721;28;20042;-79
2022/12/20 08:03:49;;;;;;;17.85;9.68;;;0.10;99.90;;;;;;5020701;28;20261;-79
2022/12/20 08:06:21;;;;;;;11.68;7.95;;;0.10;99.90;;;;;;5018715;28;20384;-79
2022/12/20 08:08:55;;;;;;;15.63;10.32;;;0.10;99.90;;;;;;5008856;28;20056;-79
2022/12/20 08:11:23;;;;;;;9.70;7.90;;;0.30;99.90;;;;;;5023674;28;20394;-79
2022/12/20 08:13:51;;;;;;;13.52;10.30;;;0.30;99.90;;;;;;4990690;28;20500;-79
2022/12/20 08:16:25;;;;;;;12.00;8.13;;;0.40;99.90;;;;;;5025124;28;20049;-79
2022/12/20 08:18:53;;;;;;;11.95;8.27;;;0.50;99.90;;;;;;5006671;28;20061;-79
2022/12/20 08:21:20;;;;;;;12.35;9.90;;;0.50;99.90;;;;;;5024236;28;20076;-79
2022/12/20 08:23:48;;;;;;;17.88;11.18;;;0.60;99.90;;;;;;5005528;28;20133;-79
2022/12/20 08:26:16;;;;;;;16.80;9.77;;;0.60;99.90;;;;;;5008685;28;20686;-79
2022/12/20 08:28:44;;;;;;;22.10;14.80;;;0.70;99.90;;;;;;5007010;28;20068;-80
2022/12/20 08:31:11;;;;;;;10.80;8.40;;;0.60;99.90;;;;;;5025436;28;20417;-79
2022/12/20 08:33:39;;;;;;;12.68;9.65;;;0.60;99.90;;;;;;5005948;28;20049;-79
2022/12/20 08:36:12;;;;;;;11.80;9.80;;;0.60;99.90;;;;;;5005504;28;20056;-79
2022/12/20 08:38:40;;;;;;;11.23;9.63;;;0.70;99.90;;;;;;5012635;28;20048;-80
2022/12/20 08:41:10;;;;;;;13.45;9.95;;;0.80;99.90;;;;;;5024707;28;20379;-80
2022/12/20 08:43:39;;;;;;;10.40;7.75;;;0.80;99.90;;;;;;5030460;28;20072;-80
2022/12/20 08:46:10;;;;;;;14.57;8.55;;;0.80;99.90;;;;;;5024090;28;20050;-80
2022/12/20 08:48:39;;;;;;;13.98;11.32;;;0.90;99.90;;;;;;4991075;28;20464;-80
2022/12/20 08:51:09;;;;;;;14.85;9.05;;;1.00;99.90;;;;;;5007112;28;20055;-80
2022/12/20 08:53:37;;;;;;;12.88;7.78;;;1.00;99.90;;;;;;4989098;28;20416;-80
2022/12/20 08:56:08;;;;;;;11.13;9.20;;;1.10;99.90;;;;;;5024709;28;20357;-80
2022/12/20 08:58:36;;;;;;;10.53;8.73;;;1.20;99.90;;;;;;5024540;28;20053;-80
2022/12/20 09:01:07;;;;;;;12.48;8.13;;;1.20;99.90;;;;;;5006003;28;20076;-80
2022/12/20 09:03:36;;;;;;;12.40;9.27;;;1.20;99.90;;;;;;5007222;28;20072;-80
2022/12/20 09:06:10;;;;;;;9.43;7.50;;;1.20;99.90;;;;;;5019216;28;20053;-80
2022/12/20 09:08:38;;;;;;;10.43;7.50;;;1.20;99.90;;;;;;5023077;28;20056;-80
2022/12/20 09:11:10;;;;;;;9.45;6.75;;;1.20;99.90;;;;;;5005947;28;20452;-80
2022/12/20 09:13:40;;;;;;;10.77;8.05;;;1.20;99.90;;;;;;4974493;28;20540;-80
2022/12/20 09:16:14;;;;;;;12.90;9.20;;;1.20;99.90;;;;;;5024883;28;20060;-80
2022/12/20 09:18:42;;;;;;;11.00;9.77;;;1.20;99.90;;;;;;5023640;28;20053;-80
2022/12/20 09:21:10;;;;;;;11.45;7.95;;;1.30;99.90;;;;;;5023145;28;20757;-79
2022/12/20 09:23:39;;;;;;;11.00;9.60;;;1.30;99.90;;;;;;5021653;28;20553;-80
2022/12/20 09:26:10;;;;;;;11.23;9.63;;;1.50;99.90;;;;;;5017905;28;20037;-80
2022/12/20 09:28:38;;;;;;;13.98;9.45;;;1.50;99.90;;;;;;5004644;28;20508;-81
2022/12/20 09:31:07;;;;;;;13.43;8.32;;;1.60;99.90;;;;;;5025204;28;20045;-80
2022/12/20 09:33:35;;;;;;;10.80;7.55;;;1.60;99.90;;;;;;5019348;28;20698;-80
2022/12/20 09:36:03;;;;;;;13.23;7.47;;;1.60;99.90;;;;;;4991940;28;20060;-80
2022/12/20 09:38:31;;;;;;;9.25;7.47;;;1.70;99.90;;;;;;5032153;28;20057;-81
2022/12/20 09:41:03;;;;;;;10.68;8.32;;;1.70;99.90;;;;;;5008081;28;20056;-80
2022/12/20 09:43:31;;;;;;;;;;;1.90;99.90;;;;;;4991029;28;20385;-80
2022/12/20 09:46:01;;;;;;;8.75;6.60;;;2.00;99.90;;;;;;5024042;28;19925;-80
2022/12/20 09:48:35;;;;;;;10.57;7.95;;;2.10;99.90;;;;;;5000076;28;20049;-81
2022/12/20 09:51:16;;;;;;;10.63;6.85;;;2.10;99.90;;;;;;5022863;28;20065;-81
2022/12/20 09:53:53;;;;;;;6.18;5.65;;;2.20;99.90;;;;;;5019317;28;20049;-81
2022/12/20 09:56:32;;;;;;;6.45;5.03;;;2.20;99.90;;;;;;4991675;28;20531;-81
2022/12/20 09:59:12;;;;;;;8.05;6.40;;;2.10;99.90;;;;;;5009751;28;20758;-80
2022/12/20 10:01:44;;;;;;;11.35;5.85;;;2.10;99.90;;;;;;5028135;28;20045;-80
2022/12/20 10:04:18;;;;;;;6.63;5.32;;;2.20;99.90;;;;;;5021032;28;20057;-81
2022/12/20 10:07:00;;;;;;;9.10;7.03;;;2.30;99.90;;;;;;5028274;28;20052;-80
2022/12/20 10:09:28;;;;;;;6.57;5.95;;;2.20;99.90;;;;;;4995778;28;20049;-80
2022/12/20 10:11:58;;;;;;;7.80;6.50;;;2.20;99.90;;;;;;5002911;28;20042;-81
2022/12/20 10:14:36;;;;;;;9.88;8.85;;;2.30;99.90;;;;;;5007429;28;20516;-80
2022/12/20 10:17:09;;;;;;;8.90;6.13;;;2.40;99.90;;;;;;5019074;28;20053;-80
2022/12/20 10:19:55;;;;;;;10.25;6.53;;;2.40;99.90;;;;;;5021619;28;20648;-81
2022/12/20 10:22:37;;;;;;;6.80;6.10;;;2.50;99.90;;;;;;5018626;28;20050;-81
2022/12/20 10:25:10;;;;;;;8.40;7.47;;;2.50;99.90;;;;;;4991777;28;20389;-80
2022/12/20 10:27:43;;;;;;;8.60;6.90;;;2.50;99.90;;;;;;5002483;28;20508;-81
2022/12/20 10:30:20;;;;;;;8.70;7.80;;;2.60;99.90;;;;;;4999300;28;20053;-80
2022/12/20 10:32:53;;;;;;;8.43;7.38;;;2.60;99.90;;;;;;4998827;28;20519;-81
2022/12/20 10:35:30;;;;;;;9.77;8.82;;;2.60;99.90;;;;;;5021674;28;20127;-80
2022/12/20 10:38:11;;;;;;;8.88;7.40;;;2.70;99.90;;;;;;5015333;28;20695;-80
2022/12/20 10:40:46;;;;;;;13.93;12.18;;;2.80;99.90;;;;;;5024684;28;20338;-80
2022/12/20 10:43:44;;;;;;;9.32;7.18;;;2.90;99.90;;;;;;5020570;28;20068;-80
2022/12/20 10:46:13;;;;;;;9.88;8.90;;;2.60;99.90;;;;;;5029389;28;20120;-80
2022/12/20 10:48:42;;;;;;;7.57;6.78;;;2.70;99.90;;;;;;5026097;28;20057;-80
2022/12/20 10:51:13;;;;;;;13.02;6.72;;;2.80;99.90;;;;;;4994414;28;20057;-80
2022/12/20 10:54:00;;;;;;;12.65;7.10;;;2.70;99.90;;;;;;5017008;28;20061;-80
2022/12/20 10:56:30;;;;;;;10.15;6.70;;;2.60;99.90;;;;;;5009479;28;20049;-80
2022/12/20 10:59:22;;;;;;;7.05;6.25;;;2.60;99.90;;;;;;5008460;28;20088;-80
2022/12/20 11:01:50;;;;;;;7.63;6.88;;;2.70;99.90;;;;;;5026667;28;20076;-80
2022/12/20 11:04:34;;;;;;;10.90;8.38;;;2.80;99.90;;;;;;5025984;28;20080;-81
2022/12/20 11:07:21;;;;;;;9.57;8.57;;;2.90;99.90;;;;;;5025248;28;20084;-80
2022/12/20 11:09:54;;;;;;;9.48;7.93;;;2.90;99.90;;;;;;4992091;28;20060;-81
2022/12/20 11:12:22;;;;;;;10.98;8.48;;;3.00;99.90;;;;;;5025661;28;20520;-81
2022/12/20 11:15:08;;;;;;;9.05;8.20;;;3.00;99.90;;;;;;5013045;28;20056;-81
2022/12/20 11:17:42;;;;;;;9.98;6.07;;;3.00;99.90;;;;;;4990234;28;20046;-80
2022/12/20 11:20:32;;;;;;;10.77;7.32;;;2.90;99.90;;;;;;5004569;28;20414;-80
2022/12/20 11:23:19;;;;;;;13.30;8.70;;;3.00;99.90;;;;;;5006216;28;20050;-80
2022/12/20 11:26:17;;;;;;;8.55;7.75;;;2.90;99.90;;;;;;5004243;28;20129;-80
2022/12/20 11:29:10;;;;;;;10.25;8.90;;;2.90;99.90;;;;;;4986791;28;20060;-80
2022/12/20 11:31:47;;;;;;;10.75;9.05;;;3.10;99.90;;;;;;5025714;28;20064;-80
2022/12/20 11:34:24;;;;;;;11.93;9.43;;;3.30;99.90;;;;;;4975352;28;20132;-80
2022/12/20 11:37:07;;;;;;;13.65;8.25;;;3.30;99.90;;;;;;5006200;28;20041;-80
2022/12/20 11:39:50;;;;;;;12.30;8.30;;;3.30;99.90;;;;;;4972055;28;20429;-80
2022/12/20 11:42:23;;;;;;;11.13;9.23;;;3.20;99.90;;;;;;4955026;28;20049;-79
2022/12/20 11:45:01;;;;;;;14.18;8.88;;;3.10;99.90;;;;;;4985921;28;20050;-79
2022/12/20 11:47:42;;;;;;;11.98;9.32;;;3.10;99.90;;;;;;5005588;28;20409;-79
2022/12/20 11:50:28;;;;;;;14.88;8.95;;;3.10;99.90;;;;;;5003802;28;20069;-79
2022/12/20 11:53:06;;;;;;;12.00;9.07;;;3.20;99.90;;;;;;4987145;28;20053;-79
2022/12/20 11:55:38;;;;;;;10.85;8.10;;;3.30;99.90;;;;;;5006913;28;20050;-79
2022/12/20 11:58:17;;;;;;;14.57;10.18;;;3.40;99.90;;;;;;5005214;28;20065;-79
2022/12/20 12:01:03;;;;;;;11.43;9.18;;;3.30;99.90;;;;;;5002395;28;20428;-79
2022/12/20 12:03:36;;;;;;;9.00;8.05;;;3.20;99.90;;;;;;5006375;28;20073;-79
2022/12/20 12:06:10;;;;;;;11.60;9.40;;;3.20;99.90;;;;;;5015812;28;20519;-79
2022/12/20 12:09:12;;;;;;;15.93;11.20;;;3.00;99.90;;;;;;5023846;28;20045;-79
2022/12/20 12:11:49;;;;;;;;;;;3.10;99.90;;;;;;4999661;28;20535;-79
2022/12/20 12:14:59;;;;;;;9.15;8.07;;;3.00;99.90;;;;;;4991932;28;19933;-79
2022/12/20 12:17:45;;;;;;;;;;;3.00;99.90;;;;;;5024242;28;20305;-79
2022/12/20 12:20:33;;;;;;;12.23;9.60;;;3.10;99.90;;;;;;5023488;28;19931;-78
2022/12/20 12:23:39;;;;;;;9.15;8.32;;;3.20;99.90;;;;;;5007790;28;20053;-79
2022/12/20 12:26:24;;;;;;;14.90;12.10;;;3.30;99.90;;;;;;4987284;28;20054;-79
2022/12/20 12:29:05;;;;;;;14.68;10.25;;;3.30;99.90;;;;;;5002725;28;20294;-79
2022/12/20 12:31:58;;;;;;;12.00;10.48;;;3.30;99.90;;;;;;5024495;28;20367;-78
2022/12/20 12:35:00;;;;;;;13.70;10.50;;;3.20;99.90;;;;;;4981537;28;20382;-78
2022/12/20 12:37:59;;;;;;;9.50;7.28;;;3.10;99.90;;;;;;4986921;28;20138;-79
2022/12/20 12:40:56;;;;;;;15.63;11.00;;;3.00;99.90;;;;;;4999491;28;20088;-78
2022/12/20 12:43:49;;;;;;;11.82;10.60;;;3.00;99.90;;;;;;4998256;28;20054;-79
2022/12/20 12:46:33;;;;;;;14.23;9.95;;;3.10;99.90;;;;;;4970364;28;20057;-79
2022/12/20 12:49:20;;;;;;;14.23;9.38;;;3.00;99.90;;;;;;4954642;28;20421;-78
2022/12/20 12:51:54;;;;;;;14.27;10.90;;;2.80;99.90;;;;;;4995695;28;20056;-79
2022/12/20 12:54:26;;;;;;;10.98;8.88;;;2.80;99.90;;;;;;4991763;28;20420;-79
2022/12/20 12:57:23;;;;;;;15.25;11.32;;;2.70;99.90;;;;;;5005197;28;20585;-79
2022/12/20 12:59:51;;;;;;;14.23;11.00;;;2.40;99.90;;;;;;5001714;28;20064;-79
2022/12/20 13:02:26;;;;;;;11.00;9.18;;;2.40;99.90;;;;;;5004799;28;20053;-78
2022/12/20 13:05:07;;;;;;;13.75;10.23;;;2.40;99.90;;;;;;5005311;28;20452;-78
2022/12/20 13:07:35;;;;;;;19.90;11.93;;;2.50;99.90;;;;;;4986320;28;20046;-78
2022/12/20 13:10:16;;;;;;;12.55;9.77;;;2.60;99.90;;;;;;5003106;28;20077;-79
2022/12/20 13:12:58;;;;;;;15.52;13.25;;;2.60;99.90;;;;;;5014474;28;20088;-78
2022/12/20 13:15:26;;;;;;;14.55;10.82;;;2.70;99.90;;;;;;4987993;28;20061;-78
2022/12/20 13:17:54;;;;;;;12.95;11.63;;;2.80;99.90;;;;;;4987213;28;20045;-79
2022/12/20 13:20:27;;;;;;;15.77;11.68;;;2.70;99.90;;;;;;5002744;28;20037;-78
2022/12/20 13:23:11;;;;;;;18.77;11.05;;;2.60;99.90;;;;;;5004347;28;20041;-78
2022/12/20 13:25:47;;;;;;;12.65;9.48;;;2.60;99.90;;;;;;4983721;28;20928;-78
2022/12/20 13:28:17;;;;;;;12.38;11.05;;;2.50;99.90;;;;;;4988874;28;20046;-78